Warning: Javascript must be enabled to use all the features on this page!


Page Loading - Please Wait...

Click to hideNews Bulletins

Peak Streamflow for New Jersey

Click to hide state-specific text

ALL DATA ARE AT LOCAL TIME


USGS 01389534 Peckman River at Ozone Ave at Verona NJ

Essex County, New Jersey
Hydrologic Unit Code 02030103
Latitude  40°50'42", Longitude  74°14'08" NAD83
Drainage area 4.45  square miles
Contributing drainage area 4.45  square miles
Gage datum 300.08 feet above NGVD29
Output formats
Table
Graph
Tab-separated file
peakfq (watstore) format
Reselect output format
Water
Year
Date Gage
Height
(feet)
Stream-
flow
(cfs)
1945 1945-07-23   3,8002,7
1979 1979-09-06 5.09 1,610
1980 1980-04-28 3.66 820
1981 1981-07-21 4.52 1,250
1982 1982-01-04 4.20 1,070
1983 1983-04-16 3.81 920
1984 1984-04-05 3.55 780
1985 1985-09-27 4.05 993
1986 1986-08-03 3.41 705
1987 1987-09-13 6.14 2,400
1988 1988-07-26 3.46 730
1989 1989-09-20 4.95 1,520
1990 1990-05-16 4.68 1,350
1991 1991-03-03 4.14 1,040
1992 1992-06-05 4.10 1,020
1993 1993-09-26 3.16 590
1994 1993-11-28 5.13 1,640
1995 1995-07-17 4.11 1,020
1996 1996-06-03 3.64 834
1997 1996-10-19 5.00 1,550
1998 1998-04-02 3.49 754
1999 1999-09-16 6.57 2,770
2000 2000-05-18 3.34 660
2001 2001-06-17 4.68 1,350
2002 2002-07-19 4.79 1,420
2003 2003-08-04 2.99 520
2004 2004-07-27 3.68 803
2005 2005-03-28 4.49 1,220
2006 2006-07-18 4.29 1,110
2007 2007-08-08 4.14 1,030
2008 2008-09-06 4.21 1,060
2009 2009-08-12 3.85 882
2010 2009-12-27 3.21 606
2011 2011-08-28 5.32 1,750
2012 2012-08-10 3.32 650
2014 2014-07-03 3.97 941
2015 2015-04-20 3.72 821
2016 2016-02-24 4.15 1,030
?
  Peak Streamflow Qualification Codes.